createdAt,value
2022-08-01T00:00:28.678Z,0.00
2022-08-01T00:01:28.628Z,0.00
2022-08-01T00:02:28.658Z,0.00
2022-08-01T00:03:28.598Z,0.00
2022-08-01T00:04:28.600Z,0.00
2022-08-01T00:05:28.622Z,0.00
2022-08-01T00:06:28.563Z,0.00
2022-08-01T00:07:28.550Z,0.00
2022-08-01T00:08:28.563Z,0.00
2022-08-01T00:09:28.521Z,0.00
2022-08-01T00:10:28.522Z,0.00
2022-08-01T00:11:28.584Z,0.00
2022-08-01T00:12:31.490Z,0.00
2022-08-01T00:13:31.483Z,0.00
2022-08-01T00:14:32.115Z,0.00
2022-08-01T00:15:28.434Z,0.00
2022-08-01T00:16:28.429Z,0.00
2022-08-01T00:17:28.425Z,0.00
2022-08-01T00:18:28.394Z,0.00
2022-08-01T00:19:28.392Z,0.00
2022-08-01T00:20:28.368Z,0.00
2022-08-01T00:21:28.355Z,0.00
2022-08-01T00:22:28.373Z,0.00
2022-08-01T00:23:28.328Z,0.00
2022-08-01T00:24:28.335Z,0.00
2022-08-01T00:25:34.022Z,0.00
2022-08-01T00:26:29.348Z,0.00
2022-08-01T00:27:28.258Z,0.00
2022-08-01T00:28:28.258Z,0.00
2022-08-01T00:30:04.685Z,0.00
2022-08-01T00:30:29.221Z,0.00
2022-08-01T00:31:28.201Z,0.00
2022-08-01T00:32:31.221Z,0.00
2022-08-01T00:33:31.212Z,0.00
2022-08-01T00:34:28.174Z,0.00
2022-08-01T00:35:28.170Z,0.00
2022-08-01T00:36:28.154Z,0.00
2022-08-01T00:37:28.134Z,0.00
2022-08-01T00:38:28.133Z,0.00
2022-08-01T00:39:28.100Z,0.00
2022-08-01T00:40:28.108Z,0.00
2022-08-01T00:41:28.104Z,0.00
2022-08-01T00:42:28.087Z,0.00
2022-08-01T00:43:28.068Z,0.00
2022-08-01T00:44:28.026Z,0.00
2022-08-01T00:45:28.007Z,0.00
2022-08-01T00:46:28.026Z,0.00
2022-08-01T00:47:27.987Z,0.00
2022-08-01T00:48:27.970Z,0.00
2022-08-01T00:49:28.062Z,0.00
2022-08-01T00:50:27.945Z,0.00
2022-08-01T00:51:27.929Z,0.00
2022-08-01T00:52:30.960Z,0.00
2022-08-01T00:53:38.721Z,0.00
2022-08-01T00:54:28.951Z,0.00
2022-08-01T00:55:27.875Z,0.00
2022-08-01T00:56:27.859Z,0.00
2022-08-01T00:58:01.420Z,0.00
2022-08-01T00:58:28.832Z,0.00
2022-08-01T00:59:27.820Z,0.00
2022-08-01T01:00:28.022Z,0.00
2022-08-01T01:01:29.784Z,0.00
2022-08-01T01:02:28.767Z,0.00
2022-08-01T01:03:57.118Z,0.00
2022-08-01T01:04:28.753Z,0.00
2022-08-01T01:05:27.723Z,0.00
2022-08-01T01:06:28.115Z,0.00
2022-08-01T01:07:27.696Z,0.00
2022-08-01T01:08:27.688Z,0.00
2022-08-01T01:09:27.668Z,0.00
2022-08-01T01:10:27.658Z,0.00
2022-08-01T01:11:27.790Z,0.00
2022-08-01T01:12:32.293Z,0.00
2022-08-01T01:13:31.629Z,0.00
2022-08-01T01:14:27.635Z,0.00
2022-08-01T01:15:27.651Z,0.00
2022-08-01T01:16:27.586Z,0.00
2022-08-01T01:17:31.299Z,0.00
2022-08-01T01:18:28.541Z,0.00
2022-08-01T01:19:27.520Z,0.00
2022-08-01T01:20:27.541Z,0.00
2022-08-01T01:21:27.502Z,0.00
2022-08-01T01:22:27.482Z,0.00
2022-08-01T01:23:27.566Z,0.00
2022-08-01T01:24:27.463Z,0.00
2022-08-01T01:25:27.449Z,0.00
2022-08-01T01:26:27.442Z,0.00
2022-08-01T01:27:27.452Z,0.00
2022-08-01T01:28:27.433Z,0.00
2022-08-01T01:29:27.392Z,0.00
2022-08-01T01:30:27.394Z,0.00
2022-08-01T01:31:27.365Z,0.00
2022-08-01T01:32:31.168Z,0.00
2022-08-01T01:33:30.379Z,0.00
2022-08-01T01:34:27.370Z,0.00
2022-08-01T01:35:27.318Z,0.00
2022-08-01T01:36:27.317Z,0.00
2022-08-01T01:37:27.286Z,0.00
2022-08-01T01:38:27.298Z,0.00
2022-08-01T01:39:27.287Z,0.00
2022-08-01T01:40:27.278Z,0.00
2022-08-01T01:41:27.230Z,0.00
2022-08-01T01:42:27.222Z,0.00
2022-08-01T01:43:33.199Z,0.00
2022-08-01T01:44:28.213Z,0.00
2022-08-01T01:45:27.155Z,0.00
2022-08-01T01:46:27.161Z,0.00
2022-08-01T01:47:27.184Z,0.00
2022-08-01T01:48:27.114Z,0.00
2022-08-01T01:49:27.154Z,0.00
2022-08-01T01:50:27.092Z,0.00
2022-08-01T01:51:27.066Z,0.00
2022-08-01T01:52:30.083Z,0.00
2022-08-01T01:53:30.066Z,0.00
2022-08-01T01:54:27.035Z,0.00
2022-08-01T01:55:27.045Z,0.00
2022-08-01T01:56:27.017Z,0.00
2022-08-01T01:57:26.977Z,0.00
2022-08-01T01:58:26.978Z,0.00
2022-08-01T01:59:26.959Z,0.00
2022-08-01T02:00:26.998Z,0.00
2022-08-01T02:01:38.635Z,0.00
2022-08-01T02:02:27.991Z,0.00
2022-08-01T02:03:26.912Z,0.00
2022-08-01T02:04:26.914Z,0.00
2022-08-01T02:05:26.908Z,0.00
2022-08-01T02:06:26.922Z,0.00
2022-08-01T02:07:26.900Z,0.00
2022-08-01T02:08:26.842Z,0.00
2022-08-01T02:09:26.811Z,0.00
2022-08-01T02:10:28.612Z,0.00
2022-08-01T02:11:26.783Z,0.00
2022-08-01T02:12:29.979Z,0.00
2022-08-01T02:13:29.766Z,0.00
2022-08-01T02:14:26.753Z,0.00
2022-08-01T02:15:26.752Z,0.00
2022-08-01T02:16:26.712Z,0.00
2022-08-01T02:17:26.704Z,0.00
2022-08-01T02:18:26.737Z,0.00
2022-08-01T02:19:26.670Z,0.00
2022-08-01T02:20:26.695Z,0.00
2022-08-01T02:21:26.637Z,0.00
2022-08-01T02:22:26.632Z,0.00
2022-08-01T02:23:26.669Z,0.00
2022-08-01T02:24:30.660Z,0.00
2022-08-01T02:25:26.607Z,0.00
2022-08-01T02:26:26.581Z,0.00
2022-08-01T02:27:26.570Z,0.00
2022-08-01T02:28:26.540Z,0.00
2022-08-01T02:29:26.550Z,0.00
2022-08-01T02:30:26.591Z,0.00
2022-08-01T02:31:26.710Z,0.00
2022-08-01T02:32:29.511Z,0.00
2022-08-01T02:33:29.558Z,0.00
2022-08-01T02:34:26.500Z,0.00
2022-08-01T02:35:26.453Z,0.00
2022-08-01T02:36:32.085Z,0.00
2022-08-01T02:37:27.434Z,0.00
2022-08-01T02:38:26.417Z,0.00
2022-08-01T02:39:26.410Z,0.00
2022-08-01T02:40:26.386Z,0.00
2022-08-01T02:41:26.376Z,0.00
2022-08-01T02:42:26.407Z,0.00
2022-08-01T02:43:26.368Z,0.00
2022-08-01T02:44:26.401Z,0.00
2022-08-01T02:45:26.340Z,0.00
2022-08-01T02:46:26.303Z,0.00
2022-08-01T02:47:26.292Z,0.00
2022-08-01T02:48:26.283Z,0.00
2022-08-01T02:49:26.324Z,0.00
2022-08-01T02:50:26.302Z,0.00
2022-08-01T02:51:26.262Z,0.00
2022-08-01T02:52:29.233Z,0.00
2022-08-01T02:53:43.914Z,0.00
2022-08-01T02:54:27.214Z,0.00
2022-08-01T02:55:26.184Z,0.00
2022-08-01T02:56:26.189Z,0.00
2022-08-01T02:57:28.981Z,0.00
2022-08-01T02:58:29.012Z,0.00
2022-08-01T02:59:26.197Z,0.00
2022-08-01T03:00:26.147Z,0.00
2022-08-01T03:01:27.097Z,0.00
2022-08-01T03:02:26.117Z,0.00
2022-08-01T03:03:26.087Z,0.00
2022-08-01T03:04:26.098Z,0.00
2022-08-01T03:05:26.069Z,0.00
2022-08-01T03:06:26.079Z,0.00
2022-08-01T03:07:34.431Z,0.00
2022-08-01T03:08:27.032Z,0.00
2022-08-01T03:09:26.068Z,0.00
2022-08-01T03:10:26.031Z,0.00
2022-08-01T03:11:26.081Z,0.00
2022-08-01T03:12:28.963Z,0.00
2022-08-01T03:13:28.962Z,0.00
2022-08-01T03:14:25.954Z,0.00
2022-08-01T03:15:25.934Z,0.00
2022-08-01T03:16:25.911Z,0.00
2022-08-01T03:17:25.993Z,0.00
2022-08-01T03:18:25.887Z,0.00
2022-08-01T03:19:25.867Z,0.00
2022-08-01T03:20:25.865Z,0.00
2022-08-01T03:21:25.859Z,0.00
2022-08-01T03:22:25.827Z,0.00
2022-08-01T03:23:38.232Z,0.00
2022-08-01T03:24:26.809Z,0.00
2022-08-01T03:25:25.788Z,0.00
2022-08-01T03:26:25.778Z,0.00
2022-08-01T03:27:25.767Z,0.00
2022-08-01T03:28:29.445Z,0.00
2022-08-01T03:29:25.771Z,0.00
2022-08-01T03:30:25.734Z,0.00
2022-08-01T03:31:25.731Z,0.00
2022-08-01T03:32:28.703Z,0.00
2022-08-01T03:33:28.714Z,0.00
2022-08-01T03:34:25.695Z,0.00
2022-08-01T03:35:25.748Z,0.00
2022-08-01T03:36:25.686Z,0.00
2022-08-01T03:37:25.647Z,0.00
2022-08-01T03:38:25.625Z,0.00
2022-08-01T03:39:25.636Z,0.00
2022-08-01T03:40:25.588Z,0.00
2022-08-01T03:41:25.585Z,0.00
2022-08-01T03:42:25.578Z,0.00
2022-08-01T03:43:33.060Z,0.00
2022-08-01T03:44:25.604Z,0.00
2022-08-01T03:45:25.521Z,0.00
2022-08-01T03:46:25.515Z,0.00
2022-08-01T03:47:25.503Z,0.00
2022-08-01T03:48:25.482Z,0.00
2022-08-01T03:49:25.579Z,0.00
2022-08-01T03:50:25.535Z,0.00
2022-08-01T03:51:25.536Z,0.00
2022-08-01T03:52:28.444Z,0.00
2022-08-01T03:53:28.497Z,0.00
2022-08-01T03:54:25.442Z,0.00
2022-08-01T03:55:25.427Z,0.00
2022-08-01T03:56:25.465Z,0.00
2022-08-01T03:57:36.410Z,0.00
2022-08-01T03:58:26.367Z,0.00
2022-08-01T03:59:25.339Z,0.00
2022-08-01T04:00:25.337Z,0.00
2022-08-01T04:01:25.414Z,0.00
2022-08-01T04:02:25.355Z,0.00
2022-08-01T04:03:25.301Z,0.00
2022-08-01T04:04:25.313Z,5.62
2022-08-01T04:05:25.301Z,0.00
2022-08-01T04:06:25.312Z,5.62
2022-08-01T04:07:25.252Z,5.62
2022-08-01T04:08:27.275Z,5.62
2022-08-01T04:09:25.280Z,5.62
2022-08-01T04:10:25.206Z,5.62
2022-08-01T04:11:25.183Z,5.62
2022-08-01T04:12:28.172Z,5.62
2022-08-01T04:13:29.263Z,5.62
2022-08-01T04:14:26.192Z,5.62
2022-08-01T04:15:25.132Z,5.62
2022-08-01T04:16:25.113Z,5.62
2022-08-01T04:17:25.105Z,5.62
2022-08-01T04:18:25.093Z,5.62
2022-08-01T04:19:25.075Z,11.25
2022-08-01T04:20:25.116Z,11.25
2022-08-01T04:21:25.103Z,5.62
2022-08-01T04:22:25.107Z,5.62
2022-08-01T04:23:25.034Z,5.62
2022-08-01T04:24:25.026Z,5.62
2022-08-01T04:25:25.107Z,5.62
2022-08-01T04:26:25.018Z,11.25
2022-08-01T04:27:49.682Z,11.25
2022-08-01T04:28:26.058Z,11.25
2022-08-01T04:29:25.033Z,11.25
2022-08-01T04:30:25.021Z,11.25
2022-08-01T04:31:24.981Z,11.25
2022-08-01T04:32:27.966Z,16.88
2022-08-01T04:33:27.972Z,16.88
2022-08-01T04:34:24.992Z,16.88
2022-08-01T04:36:01.989Z,16.88
2022-08-01T04:36:25.973Z,16.88
2022-08-01T04:37:24.981Z,16.88
2022-08-01T04:38:24.902Z,16.88
2022-08-01T04:39:24.963Z,16.88
2022-08-01T04:40:24.822Z,16.88
2022-08-01T04:41:24.803Z,16.88
2022-08-01T04:42:26.139Z,16.88
2022-08-01T04:43:25.787Z,16.88
2022-08-01T04:44:24.766Z,16.88
2022-08-01T04:45:24.747Z,16.88
2022-08-01T04:46:24.720Z,16.88
2022-08-01T04:47:24.762Z,16.88
2022-08-01T04:48:24.690Z,22.50
2022-08-01T04:49:24.683Z,28.12
2022-08-01T04:50:24.660Z,28.12
2022-08-01T04:51:24.658Z,22.50
2022-08-01T04:52:27.860Z,22.50
2022-08-01T04:53:27.684Z,22.50
2022-08-01T04:54:24.700Z,28.12
2022-08-01T04:55:24.589Z,28.12
2022-08-01T04:56:24.583Z,28.12
2022-08-01T04:57:24.572Z,28.12
2022-08-01T04:58:24.602Z,28.12
2022-08-01T04:59:24.542Z,28.12
2022-08-01T05:00:24.541Z,28.12
2022-08-01T05:01:24.578Z,28.12
2022-08-01T05:02:24.486Z,28.12
2022-08-01T05:03:24.493Z,28.12
2022-08-01T05:04:24.502Z,28.12
2022-08-01T05:05:24.467Z,22.50
2022-08-01T05:06:24.455Z,22.50
2022-08-01T05:07:24.476Z,22.50
2022-08-01T05:08:24.431Z,22.50
2022-08-01T05:09:27.116Z,22.50
2022-08-01T05:10:25.394Z,22.50
2022-08-01T05:11:24.386Z,28.12
2022-08-01T05:12:27.418Z,33.75
2022-08-01T05:13:27.378Z,33.75
2022-08-01T05:14:24.469Z,33.75
2022-08-01T05:15:24.378Z,33.75
2022-08-01T05:16:24.311Z,39.38
2022-08-01T05:17:24.430Z,45.00
2022-08-01T05:18:27.708Z,50.62
2022-08-01T05:19:24.282Z,67.50
2022-08-01T05:20:24.342Z,67.50
2022-08-01T05:21:24.241Z,73.12
2022-08-01T05:22:24.290Z,78.75
2022-08-01T05:23:42.420Z,67.50
2022-08-01T05:24:25.321Z,56.25
2022-08-01T05:25:56.142Z,50.62
2022-08-01T05:26:25.183Z,50.62
2022-08-01T05:27:24.195Z,45.00
2022-08-01T05:28:24.165Z,33.75
2022-08-01T05:29:24.139Z,33.75
2022-08-01T05:30:24.124Z,28.12
2022-08-01T05:31:24.134Z,28.12
2022-08-01T05:32:27.136Z,28.12
2022-08-01T05:33:27.113Z,22.50
2022-08-01T05:34:24.070Z,22.50
2022-08-01T05:35:24.060Z,22.50
2022-08-01T05:36:25.045Z,22.50
2022-08-01T05:37:24.047Z,28.12
2022-08-01T05:38:24.051Z,33.75
2022-08-01T05:39:24.003Z,33.75
2022-08-01T05:40:24.030Z,33.75
2022-08-01T05:41:23.971Z,33.75
2022-08-01T05:42:24.016Z,33.75
2022-08-01T05:43:28.472Z,39.38
2022-08-01T05:44:24.931Z,39.38
2022-08-01T05:45:23.923Z,39.38
2022-08-01T05:46:23.955Z,39.38
2022-08-01T05:47:23.918Z,45.00
2022-08-01T05:48:23.873Z,45.00
2022-08-01T05:49:23.918Z,45.00
2022-08-01T05:50:23.844Z,39.38
2022-08-01T05:51:23.827Z,39.38
2022-08-01T05:52:26.846Z,39.38
2022-08-01T05:53:26.817Z,33.75
2022-08-01T05:54:23.818Z,33.75
2022-08-01T05:55:23.778Z,39.38
2022-08-01T05:56:23.759Z,39.38
2022-08-01T05:57:24.515Z,39.38
2022-08-01T05:58:23.770Z,39.38
2022-08-01T05:59:23.719Z,39.38
2022-08-01T06:00:23.710Z,45.00
2022-08-01T06:01:23.710Z,45.00
2022-08-01T06:02:24.497Z,50.62
2022-08-01T06:03:23.737Z,45.00
2022-08-01T06:04:23.655Z,45.00
2022-08-01T06:05:23.653Z,39.38
2022-08-01T06:06:25.520Z,39.38
2022-08-01T06:07:24.378Z,39.38
2022-08-01T06:08:23.623Z,45.00
2022-08-01T06:09:23.714Z,50.62
2022-08-01T06:10:23.584Z,50.62
2022-08-01T06:11:23.583Z,45.00
2022-08-01T06:12:26.604Z,45.00
2022-08-01T06:13:26.545Z,50.62
2022-08-01T06:14:23.545Z,56.25
2022-08-01T06:15:23.567Z,50.62
2022-08-01T06:16:23.517Z,56.25
2022-08-01T06:17:24.236Z,56.25
2022-08-01T06:18:23.499Z,50.62
2022-08-01T06:19:23.473Z,56.25
2022-08-01T06:20:23.458Z,50.62
2022-08-01T06:21:23.458Z,56.25
2022-08-01T06:22:24.169Z,56.25
2022-08-01T06:23:31.946Z,50.62
2022-08-01T06:24:24.420Z,45.00
2022-08-01T06:25:23.408Z,50.62
2022-08-01T06:26:23.400Z,56.25
2022-08-01T06:27:24.320Z,56.25
2022-08-01T06:28:23.411Z,50.62
2022-08-01T06:29:23.335Z,56.25
2022-08-01T06:30:23.341Z,61.88
2022-08-01T06:31:23.306Z,73.12
2022-08-01T06:32:27.833Z,73.12
2022-08-01T06:33:26.366Z,73.12
2022-08-01T06:34:23.267Z,73.12
2022-08-01T06:35:23.241Z,84.38
2022-08-01T06:36:23.266Z,90.00
2022-08-01T06:37:23.965Z,84.38
2022-08-01T06:38:23.255Z,84.38
2022-08-01T06:39:23.245Z,90.00
2022-08-01T06:40:23.195Z,90.00
2022-08-01T06:41:23.199Z,90.00
2022-08-01T06:42:23.176Z,90.00
2022-08-01T06:43:23.127Z,95.62
2022-08-01T06:44:23.125Z,95.62
2022-08-01T06:45:23.134Z,95.62
2022-08-01T06:46:23.093Z,90.00
2022-08-01T06:47:23.076Z,84.38
2022-08-01T06:48:23.088Z,84.38
2022-08-01T06:49:23.106Z,84.38
2022-08-01T06:50:23.142Z,84.38
2022-08-01T06:51:23.091Z,101.25
2022-08-01T06:52:26.134Z,112.50
2022-08-01T06:53:26.068Z,112.50
2022-08-01T06:54:22.981Z,112.50
2022-08-01T06:55:22.980Z,129.38
2022-08-01T06:56:22.952Z,135.00
2022-08-01T06:57:22.993Z,129.38
2022-08-01T06:58:22.923Z,118.12
2022-08-01T06:59:23.914Z,101.25
2022-08-01T07:00:22.914Z,112.50
2022-08-01T07:01:22.944Z,123.75
2022-08-01T07:02:22.950Z,129.38
2022-08-01T07:03:22.846Z,129.38
2022-08-01T07:04:22.899Z,135.00
2022-08-01T07:05:22.848Z,129.38
2022-08-01T07:06:22.846Z,123.75
2022-08-01T07:07:22.846Z,129.38
2022-08-01T07:08:22.817Z,140.62
2022-08-01T07:09:22.784Z,140.62
2022-08-01T07:10:22.811Z,140.62
2022-08-01T07:11:22.776Z,135.00
2022-08-01T07:12:25.732Z,140.62
2022-08-01T07:13:25.730Z,146.25
2022-08-01T07:14:23.716Z,168.75
2022-08-01T07:15:22.730Z,191.25
2022-08-01T07:16:22.711Z,208.12
2022-08-01T07:17:22.687Z,202.50
2022-08-01T07:18:22.672Z,202.50
2022-08-01T07:19:22.731Z,208.12
2022-08-01T07:20:22.688Z,196.88
2022-08-01T07:21:38.979Z,213.75
2022-08-01T07:22:23.805Z,225.00
2022-08-01T07:23:22.854Z,225.00
2022-08-01T07:24:23.602Z,230.62
2022-08-01T07:25:22.604Z,225.00
2022-08-01T07:26:22.575Z,230.62
2022-08-01T07:27:25.593Z,230.62
2022-08-01T07:28:22.556Z,219.38
2022-08-01T07:29:22.513Z,225.00
2022-08-01T07:30:22.567Z,258.75
2022-08-01T07:31:22.521Z,236.25
2022-08-01T07:32:25.524Z,281.25
2022-08-01T07:33:25.484Z,225.00
2022-08-01T07:34:22.449Z,202.50
2022-08-01T07:35:22.433Z,208.12
2022-08-01T07:36:22.426Z,219.38
2022-08-01T07:37:45.063Z,270.00
2022-08-01T07:38:23.460Z,281.25
2022-08-01T07:39:22.413Z,270.00
2022-08-01T07:40:22.437Z,208.12
2022-08-01T07:41:22.341Z,202.50
2022-08-01T07:42:23.332Z,196.88
2022-08-01T07:43:22.333Z,213.75
2022-08-01T07:44:23.612Z,303.75
2022-08-01T07:45:22.314Z,315.00
2022-08-01T07:46:22.284Z,236.25
2022-08-01T07:47:22.248Z,264.38
2022-08-01T07:48:22.249Z,264.38
2022-08-01T07:49:22.241Z,241.88
2022-08-01T07:50:22.294Z,230.62
2022-08-01T07:51:22.216Z,247.50
2022-08-01T07:52:25.177Z,258.75
2022-08-01T07:53:25.188Z,191.25
2022-08-01T07:54:22.148Z,225.00
2022-08-01T07:55:23.230Z,174.38
2022-08-01T07:56:22.139Z,213.75
2022-08-01T07:57:22.098Z,247.50
2022-08-01T07:58:22.086Z,309.38
2022-08-01T07:59:26.207Z,326.25
2022-08-01T08:00:22.117Z,253.12
2022-08-01T08:01:22.191Z,241.88
2022-08-01T08:02:22.118Z,230.62
2022-08-01T08:03:22.045Z,225.00
2022-08-01T08:04:22.036Z,219.38
2022-08-01T08:05:51.359Z,219.38
2022-08-01T08:06:23.022Z,219.38
2022-08-01T08:07:22.003Z,202.50
2022-08-01T08:08:21.964Z,213.75
2022-08-01T08:09:21.974Z,213.75
2022-08-01T08:10:21.996Z,213.75
2022-08-01T08:11:21.916Z,208.12
2022-08-01T08:12:28.539Z,196.88
2022-08-01T08:13:25.929Z,213.75
2022-08-01T08:14:21.878Z,208.12
2022-08-01T08:15:22.938Z,236.25
2022-08-01T08:16:21.857Z,236.25
2022-08-01T08:17:21.841Z,247.50
2022-08-01T08:18:21.868Z,303.75
2022-08-01T08:19:21.799Z,241.88
2022-08-01T08:20:22.800Z,247.50
2022-08-01T08:21:21.843Z,225.00
2022-08-01T08:22:21.771Z,219.38
2022-08-01T08:23:41.370Z,219.38
2022-08-01T08:24:26.671Z,202.50
2022-08-01T08:25:21.732Z,208.12
2022-08-01T08:26:21.733Z,219.38
2022-08-01T08:27:21.722Z,213.75
2022-08-01T08:28:24.200Z,236.25
2022-08-01T08:29:22.684Z,241.88
2022-08-01T08:30:22.038Z,253.12
2022-08-01T08:31:25.695Z,213.75
2022-08-01T08:32:25.644Z,185.62
2022-08-01T08:33:24.639Z,163.12
2022-08-01T08:34:22.180Z,236.25
2022-08-01T08:35:23.205Z,230.62
2022-08-01T08:36:31.155Z,236.25
2022-08-01T08:37:22.567Z,241.88
2022-08-01T08:38:21.552Z,264.38
2022-08-01T08:39:22.535Z,275.62
2022-08-01T08:40:21.520Z,298.12
2022-08-01T08:41:21.534Z,275.62
2022-08-01T08:42:21.531Z,247.50
2022-08-01T08:43:21.498Z,236.25
2022-08-01T08:44:21.481Z,225.00
2022-08-01T08:45:21.481Z,202.50
2022-08-01T08:46:28.148Z,185.62
2022-08-01T08:47:22.431Z,163.12
2022-08-01T08:48:21.453Z,157.50
2022-08-01T08:49:22.537Z,163.12
2022-08-01T08:50:21.437Z,174.38
2022-08-01T08:51:21.374Z,180.00
2022-08-01T08:52:24.394Z,270.00
2022-08-01T08:53:24.368Z,281.25
2022-08-01T08:54:21.344Z,281.25
2022-08-01T08:55:21.332Z,275.62
2022-08-01T08:56:21.376Z,264.38
2022-08-01T08:57:21.295Z,202.50
2022-08-01T08:58:21.294Z,230.62
2022-08-01T08:59:21.267Z,253.12
2022-08-01T09:00:21.272Z,298.12
2022-08-01T09:01:23.002Z,264.38
2022-08-01T09:02:21.268Z,292.50
2022-08-01T09:03:21.300Z,275.62
2022-08-01T09:04:21.209Z,264.38
2022-08-01T09:05:21.194Z,270.00
2022-08-01T09:06:21.185Z,247.50
2022-08-01T09:07:21.211Z,253.12
2022-08-01T09:08:21.153Z,253.12
2022-08-01T09:09:21.138Z,264.38
2022-08-01T09:10:21.122Z,270.00
2022-08-01T09:11:23.159Z,270.00
2022-08-01T09:12:24.117Z,275.62
2022-08-01T09:13:24.091Z,258.75
2022-08-01T09:14:21.064Z,191.25
2022-08-01T09:15:21.044Z,191.25
2022-08-01T09:16:21.035Z,219.38
2022-08-01T09:17:21.030Z,225.00
2022-08-01T09:18:21.035Z,230.62
2022-08-01T09:19:40.587Z,247.50
2022-08-01T09:20:21.997Z,258.75
2022-08-01T09:21:20.978Z,180.00
2022-08-01T09:22:20.946Z,180.00
2022-08-01T09:23:20.997Z,185.62
2022-08-01T09:24:28.431Z,185.62
2022-08-01T09:25:21.937Z,180.00
2022-08-01T09:26:21.910Z,180.00
2022-08-01T09:27:22.114Z,185.62
2022-08-01T09:28:20.869Z,275.62
2022-08-01T09:29:37.171Z,286.88
2022-08-01T09:30:23.775Z,286.88
2022-08-01T09:31:20.831Z,286.88
2022-08-01T09:32:26.035Z,275.62
2022-08-01T09:33:23.820Z,270.00
2022-08-01T09:34:20.783Z,258.75
2022-08-01T09:35:20.823Z,208.12
2022-08-01T09:36:20.768Z,247.50
2022-08-01T09:37:24.072Z,241.88
2022-08-01T09:38:20.744Z,247.50
2022-08-01T09:39:20.726Z,247.50
2022-08-01T09:40:20.713Z,264.38
2022-08-01T09:41:20.742Z,241.88
2022-08-01T09:42:20.686Z,157.50
2022-08-01T09:44:33.317Z,230.62
2022-08-01T09:45:41.616Z,247.50
2022-08-01T09:46:32.011Z,247.50
2022-08-01T09:47:30.986Z,241.88
2022-08-01T09:48:31.015Z,225.00
2022-08-01T09:49:50.740Z,219.38
2022-08-01T09:50:31.966Z,219.38
2022-08-01T09:52:00.013Z,208.12
2022-08-01T09:52:31.924Z,219.38
2022-08-01T09:53:31.199Z,219.38
2022-08-01T09:54:31.899Z,208.12
2022-08-01T09:55:30.964Z,196.88
2022-08-01T09:56:30.869Z,191.25
2022-08-01T09:57:31.101Z,191.25
2022-08-01T09:58:30.849Z,191.25
2022-08-01T09:59:41.019Z,196.88
2022-08-01T10:00:44.876Z,196.88
2022-08-01T10:01:36.960Z,196.88
2022-08-01T10:02:31.786Z,202.50
2022-08-01T10:03:33.872Z,202.50
2022-08-01T10:04:33.802Z,208.12
2022-08-01T10:05:30.758Z,208.12
2022-08-01T10:06:31.732Z,180.00
2022-08-01T10:07:42.913Z,196.88
2022-08-01T10:08:31.703Z,208.12
2022-08-01T10:09:35.899Z,219.38
2022-08-01T10:10:31.832Z,219.38
2022-08-01T10:11:36.701Z,230.62
2022-08-01T10:12:31.646Z,236.25
2022-08-01T10:13:36.594Z,236.25
2022-08-01T10:14:31.648Z,230.62
2022-08-01T10:15:37.275Z,225.00
2022-08-01T10:16:31.594Z,213.75
2022-08-01T10:17:50.366Z,208.12
2022-08-01T10:18:31.570Z,202.50
2022-08-01T10:19:30.685Z,202.50
2022-08-01T10:20:32.353Z,196.88
2022-08-01T10:21:56.374Z,196.88
2022-08-01T10:22:31.517Z,191.25
2022-08-01T10:23:39.825Z,191.25
2022-08-01T10:24:34.631Z,191.25
2022-08-01T10:25:42.325Z,191.25
2022-08-01T10:26:31.471Z,191.25
2022-08-01T10:27:37.920Z,191.25
2022-08-01T10:28:31.456Z,196.88
2022-08-01T10:29:46.245Z,196.88
2022-08-01T10:30:31.436Z,196.88
2022-08-01T10:31:30.578Z,196.88
2022-08-01T10:32:30.375Z,202.50
2022-08-01T10:33:50.559Z,202.50
2022-08-01T10:34:31.474Z,208.12
2022-08-01T10:35:47.312Z,219.38
2022-08-01T10:36:31.317Z,225.00
2022-08-01T10:37:30.322Z,225.00
2022-08-01T10:38:30.288Z,225.00
2022-08-01T10:39:30.281Z,219.38
2022-08-01T10:40:31.311Z,225.00
2022-08-01T10:41:30.288Z,225.00
2022-08-01T10:42:30.239Z,225.00
2022-08-01T10:43:33.229Z,140.62
2022-08-01T10:44:33.228Z,225.00
2022-08-01T10:45:30.287Z,213.75
2022-08-01T10:46:30.221Z,213.75
2022-08-01T10:47:50.943Z,219.38
2022-08-01T10:48:31.212Z,225.00
2022-08-01T10:49:30.221Z,219.38
2022-08-01T10:50:30.138Z,219.38
2022-08-01T10:51:51.963Z,225.00
2022-08-01T10:52:31.111Z,225.00
2022-08-01T10:53:31.645Z,225.00
2022-08-01T10:54:31.117Z,230.62
2022-08-01T10:55:30.062Z,230.62
2022-08-01T10:56:30.055Z,230.62
2022-08-01T10:57:30.040Z,230.62
2022-08-01T10:58:30.047Z,225.00
2022-08-01T10:59:50.181Z,225.00
2022-08-01T11:00:30.998Z,225.00
2022-08-01T11:01:30.031Z,225.00
2022-08-01T11:02:32.876Z,225.00
2022-08-01T11:03:55.532Z,219.38
2022-08-01T11:04:34.020Z,208.12
2022-08-01T11:05:29.930Z,219.38
2022-08-01T11:06:29.921Z,219.38
2022-08-01T11:07:34.809Z,219.38
2022-08-01T11:08:30.902Z,196.88
2022-08-01T11:09:36.149Z,219.38
2022-08-01T11:10:30.936Z,219.38
2022-08-01T11:11:29.854Z,225.00
2022-08-01T11:12:30.844Z,225.00
2022-08-01T11:13:32.338Z,225.00
2022-08-01T11:14:54.901Z,225.00
2022-08-01T11:15:31.368Z,230.62
2022-08-01T11:16:29.833Z,230.62
2022-08-01T11:17:29.786Z,236.25
2022-08-01T11:18:31.079Z,163.12
2022-08-01T11:19:29.756Z,225.00
2022-08-01T11:20:29.739Z,230.62
2022-08-01T11:21:57.199Z,236.25
2022-08-01T11:22:30.739Z,230.62
2022-08-01T11:23:36.246Z,236.25
2022-08-01T11:24:32.710Z,236.25
2022-08-01T11:26:03.600Z,236.25
2022-08-01T11:26:30.738Z,236.25
2022-08-01T11:27:31.277Z,236.25
2022-08-01T11:28:34.713Z,230.62
2022-08-01T11:29:30.621Z,225.00
2022-08-01T11:30:29.611Z,230.62
2022-08-01T11:31:29.651Z,208.12
2022-08-01T11:32:29.584Z,230.62
2022-08-01T11:33:29.601Z,230.62
2022-08-01T11:34:29.562Z,225.00
2022-08-01T11:35:29.570Z,225.00
2022-08-01T11:36:57.557Z,219.38
2022-08-01T11:37:31.000Z,225.00
2022-08-01T11:38:29.505Z,219.38
2022-08-01T11:39:29.791Z,225.00
2022-08-01T11:40:29.486Z,230.62
2022-08-01T11:41:38.630Z,230.62
2022-08-01T11:42:30.488Z,230.62
2022-08-01T11:43:32.466Z,168.75
2022-08-01T11:44:32.449Z,157.50
2022-08-01T11:45:29.418Z,146.25
2022-08-01T11:46:29.409Z,202.50
2022-08-01T11:47:29.855Z,225.00
2022-08-01T11:48:30.435Z,196.88
2022-08-01T11:49:29.641Z,213.75
2022-08-01T11:50:29.370Z,236.25
2022-08-01T11:51:29.342Z,236.25
2022-08-01T11:52:29.368Z,157.50
2022-08-01T11:53:29.312Z,219.38
2022-08-01T11:54:35.291Z,151.88
2022-08-01T11:55:31.335Z,163.12
2022-08-01T11:56:30.553Z,225.00
2022-08-01T11:57:34.199Z,219.38
2022-08-01T11:58:31.377Z,202.50
2022-08-01T11:59:29.235Z,185.62
2022-08-01T12:00:30.227Z,185.62
2022-08-01T12:01:29.206Z,185.62
2022-08-01T12:02:30.382Z,208.12
2022-08-01T12:03:33.730Z,219.38
2022-08-01T12:04:32.180Z,202.50
2022-08-01T12:05:29.170Z,191.25
2022-08-01T12:06:29.139Z,163.12
2022-08-01T12:07:29.131Z,174.38
2022-08-01T12:08:29.139Z,185.62
2022-08-01T12:09:29.100Z,225.00
2022-08-01T12:10:29.091Z,157.50
2022-08-01T12:11:32.604Z,146.25
2022-08-01T12:12:30.068Z,208.12
2022-08-01T12:13:29.250Z,191.25
2022-08-01T12:14:29.034Z,230.62
2022-08-01T12:15:29.011Z,236.25
2022-08-01T12:16:33.312Z,236.25
2022-08-01T12:17:28.993Z,241.88
2022-08-01T12:18:28.989Z,253.12
2022-08-01T12:19:29.061Z,264.38
2022-08-01T12:20:30.249Z,264.38
2022-08-01T12:21:28.934Z,264.38
2022-08-01T12:22:28.926Z,258.75
2022-08-01T12:23:31.935Z,253.12
2022-08-01T12:24:31.911Z,253.12
2022-08-01T12:25:28.916Z,253.12
2022-08-01T12:26:31.996Z,253.12
2022-08-01T12:27:28.891Z,253.12
2022-08-01T12:28:28.901Z,241.88
2022-08-01T12:29:28.831Z,213.75
2022-08-01T12:30:28.830Z,236.25
2022-08-01T12:31:28.800Z,247.50
2022-08-01T12:32:35.770Z,247.50
2022-08-01T12:33:29.822Z,225.00
2022-08-01T12:34:28.792Z,253.12
2022-08-01T12:35:28.744Z,253.12
2022-08-01T12:36:28.736Z,253.12
2022-08-01T12:37:28.726Z,253.12
2022-08-01T12:38:28.711Z,258.75
2022-08-01T12:39:28.732Z,258.75
2022-08-01T12:40:28.684Z,230.62
2022-08-01T12:41:28.682Z,253.12
2022-08-01T12:42:28.680Z,236.25
2022-08-01T12:43:31.656Z,258.75
2022-08-01T12:44:31.687Z,180.00
2022-08-01T12:45:28.629Z,174.38
2022-08-01T12:46:28.636Z,247.50
2022-08-01T12:47:28.590Z,247.50
2022-08-01T12:48:28.599Z,253.12
2022-08-01T12:49:28.608Z,253.12
2022-08-01T12:50:28.567Z,253.12